Terminal Aerodrome Forecast
Issued by NWS Upton, NY

Home | Current Version | Previous Version | Text Only | Print | Product List | Glossary On
Versions: 1 2 3 4 5 6 7 8 9 10 11 12 13 14 15 16 17 18 19 20 21 22 23 24 25 26 27 28 29 30
510
FTUS41 KOKX 291120
TAFEWR
TAF
KEWR 291120Z 2912/3018 22007KT P6SM SKC
     FM291600 19007KT P6SM SCT250
     FM291800 15013KT P6SM BKN200
     FM300100 18007KT P6SM VCSH SCT015 BKN150
     FM300300 VRB05KT 4SM -SHRA BR BKN025 OVC100
     FM300600 VRB03KT 2SM SHRA BR SCT007 BKN015
     FM301300 18007KT 1 1/2SM SHRA BR SCT004 BKN010=

USA.gov is the U.S. government's official web portal to all federal, state and local government web resources and services.